Time;durP1;ratioP1;P1;durP2;ratioP2;P2;SDS_P1;SDS_P2;PMS_P1;PMS_P2;Temp;Humidity;BMP_temperature;BMP_pressure;BME280_temperature;BME280_humidity;BME280_pressure;Samples;Min_cycle;Max_cycle;Signal;HPM_P1;HPM_P2
2022/01/14 00:02:01;;;;;;;26.70;17.23;;;6.50;99.90;;;;;;5096184;28;20479;-69
2022/01/14 00:04:27;;;;;;;27.67;16.25;;;6.50;99.90;;;;;;5078018;28;20123;-69
2022/01/14 00:06:53;;;;;;;35.50;18.00;;;6.50;99.90;;;;;;5095027;28;20044;-69
2022/01/14 00:09:18;;;;;;;37.22;17.35;;;6.50;99.90;;;;;;5096248;28;20061;-68
2022/01/14 00:11:51;;;;;;;32.60;16.95;;;6.50;99.90;;;;;;5095638;28;20075;-69
2022/01/14 00:16:44;;;;;;;32.78;16.75;;;6.40;99.90;;;;;;5094319;28;20061;-69
2022/01/14 00:19:10;;;;;;;31.05;15.98;;;6.50;99.90;;;;;;5094680;28;20044;-69
2022/01/14 00:21:38;;;;;;;31.48;15.45;;;6.50;99.90;;;;;;5095705;28;20483;-68
2022/01/14 00:24:12;;;;;;;25.90;15.55;;;6.50;99.90;;;;;;5094855;28;20042;-68
2022/01/14 00:32:12;;;;;;;33.33;17.10;;;6.40;99.90;;;;;;5094262;28;20052;-69
2022/01/14 00:34:38;;;;;;;34.25;17.27;;;6.50;99.90;;;;;;5094543;28;20420;-68
2022/01/14 00:37:04;;;;;;;28.23;15.65;;;6.40;99.90;;;;;;5093836;28;20044;-68
2022/01/14 00:39:30;;;;;;;33.05;15.73;;;6.40;99.90;;;;;;5095248;28;20131;-68
2022/01/14 00:41:55;;;;;;;25.27;16.33;;;6.50;99.90;;;;;;5094533;28;20061;-69
2022/01/14 00:44:21;;;;;;;30.90;17.02;;;6.40;99.90;;;;;;5095823;28;20598;-68
2022/01/14 00:46:48;;;;;;;36.63;16.50;;;6.40;99.90;;;;;;5093980;28;20047;-69
2022/01/14 00:49:16;;;;;;;27.75;14.38;;;6.40;99.90;;;;;;5095196;28;20484;-68
2022/01/14 00:51:43;;;;;;;29.48;14.90;;;6.50;99.90;;;;;;5093871;28;20484;-68
2022/01/14 00:54:09;;;;;;;26.08;13.30;;;6.50;99.90;;;;;;5095126;28;20192;-69
2022/01/14 00:59:16;;;;;;;29.70;14.95;;;6.50;99.90;;;;;;5093835;28;20044;-68
2022/01/14 01:01:50;;;;;;;36.65;16.27;;;6.50;99.90;;;;;;5094492;28;20043;-69
2022/01/14 01:04:32;;;;;;;33.65;16.65;;;6.50;99.90;;;;;;5095109;28;20434;-69
2022/01/14 01:06:59;;;;;;;28.40;17.17;;;6.50;99.90;;;;;;5094648;28;20398;-68
2022/01/14 01:09:26;;;;;;;27.23;15.73;;;6.50;99.90;;;;;;5093628;28;20051;-68
2022/01/14 01:12:06;;;;;;;26.88;14.40;;;6.50;99.90;;;;;;5094184;28;20071;-69
2022/01/14 01:14:42;;;;;;;24.10;15.15;;;6.50;99.90;;;;;;5077248;28;20123;-69
2022/01/14 01:17:08;;;;;;;31.40;15.93;;;6.50;99.90;;;;;;5094500;28;20044;-69
2022/01/14 01:19:34;;;;;;;28.70;14.98;;;6.50;99.90;;;;;;5094862;28;20408;-69
2022/01/14 01:21:59;;;;;;;31.10;15.00;;;6.50;99.90;;;;;;5093328;28;20040;-69
2022/01/14 01:24:25;;;;;;;24.33;14.63;;;6.40;99.90;;;;;;5092774;28;20084;-68
2022/01/14 01:26:52;;;;;;;36.50;16.08;;;6.50;99.90;;;;;;5092863;28;20044;-69
2022/01/14 01:31:53;;;;;;;33.10;15.65;;;6.40;99.90;;;;;;5093615;28;20155;-69
2022/01/14 01:34:23;;;;;;;27.58;15.82;;;6.40;99.90;;;;;;5094506;28;20054;-68
2022/01/14 01:36:52;;;;;;;25.15;16.48;;;6.40;99.90;;;;;;5093029;28;20108;-68
2022/01/14 01:39:21;;;;;;;33.92;17.40;;;6.40;99.90;;;;;;5092789;28;20052;-69
2022/01/14 01:41:52;;;;;;;31.92;17.00;;;6.40;99.90;;;;;;5093157;28;20090;-69
2022/01/14 01:44:19;;;;;;;31.85;17.70;;;6.30;99.90;;;;;;5093263;28;20036;-68
2022/01/14 01:46:47;;;;;;;33.22;17.42;;;6.30;99.90;;;;;;5092727;28;20045;-69
2022/01/14 01:49:15;;;;;;;39.08;18.65;;;6.40;99.90;;;;;;5092784;28;20051;-68
2022/01/14 01:51:42;;;;;;;30.73;17.85;;;6.40;99.90;;;;;;5075852;28;20036;-69
2022/01/14 01:54:08;;;;;;;33.92;17.75;;;6.40;99.90;;;;;;5094425;28;20123;-69
2022/01/14 01:56:34;;;;;;;32.67;18.00;;;6.40;99.90;;;;;;5075534;28;20060;-68
2022/01/14 01:59:00;;;;;;;36.28;19.55;;;6.40;99.90;;;;;;5093944;28;20040;-69
2022/01/14 02:01:26;;;;;;;34.80;17.83;;;6.40;99.90;;;;;;5092620;28;20044;-68
2022/01/14 02:03:55;;;;;;;33.42;17.50;;;6.30;99.90;;;;;;5092664;28;20122;-69
2022/01/14 02:06:22;;;;;;;32.47;17.90;;;6.40;99.90;;;;;;5093635;28;20072;-69
2022/01/14 02:08:48;;;;;;;35.38;19.05;;;6.30;99.90;;;;;;5092546;28;20048;-69
2022/01/14 02:11:14;;;;;;;33.42;17.88;;;6.30;99.90;;;;;;5093721;28;20040;-68
2022/01/14 02:13:40;;;;;;;37.13;19.77;;;6.40;99.90;;;;;;5092456;28;20515;-68
2022/01/14 02:18:41;;;;;;;34.83;19.83;;;6.30;99.90;;;;;;5092669;28;20101;-69
2022/01/14 02:26:48;;;;;;;37.03;18.67;;;6.40;99.90;;;;;;5074430;28;20131;-69
2022/01/14 02:29:14;;;;;;;41.47;18.42;;;6.40;99.90;;;;;;5092385;28;20052;-69
2022/01/14 02:31:40;;;;;;;40.13;19.15;;;6.30;99.90;;;;;;5093431;28;20036;-68
2022/01/14 02:34:06;;;;;;;28.50;18.08;;;6.30;99.90;;;;;;5093401;28;20039;-68
2022/01/14 02:36:32;;;;;;;33.17;19.13;;;6.30;99.90;;;;;;5091915;28;20032;-69
2022/01/14 02:38:59;;;;;;;35.83;20.05;;;6.30;99.90;;;;;;5092132;28;20036;-69
2022/01/14 02:41:25;;;;;;;40.17;20.30;;;6.40;99.90;;;;;;5093679;28;20457;-69
2022/01/14 02:43:51;;;;;;;37.70;19.88;;;6.30;99.90;;;;;;5093576;28;20032;-69
2022/01/14 02:46:16;;;;;;;40.28;20.88;;;6.40;99.90;;;;;;5091836;28;20051;-68
2022/01/14 02:48:42;;;;;;;46.15;20.35;;;6.40;99.90;;;;;;5093846;28;20043;-69
2022/01/14 02:51:12;;;;;;;30.40;18.13;;;6.40;99.90;;;;;;5093328;28;20040;-68
2022/01/14 02:56:16;;;;;;;45.28;21.55;;;6.40;99.90;;;;;;5092962;28;20101;-69
2022/01/14 02:58:43;;;;;;;34.97;18.90;;;6.30;99.90;;;;;;5091793;28;20040;-69
2022/01/14 03:01:17;;;;;;;34.38;19.05;;;6.40;99.90;;;;;;5092448;28;20132;-69
2022/01/14 03:03:45;;;;;;;37.55;19.83;;;6.30;99.90;;;;;;5092111;28;20480;-68
2022/01/14 03:06:13;;;;;;;37.58;18.85;;;6.40;99.90;;;;;;5092710;28;20044;-69
2022/01/14 03:08:39;;;;;;;39.08;19.88;;;6.40;99.90;;;;;;5093279;28;20101;-69
2022/01/14 03:11:06;;;;;;;40.33;19.58;;;6.40;99.90;;;;;;5091906;28;20044;-68
2022/01/14 03:13:33;;;;;;;31.70;18.95;;;6.40;99.90;;;;;;5091820;28;20493;-69
2022/01/14 03:16:00;;;;;;;38.55;19.73;;;6.40;99.90;;;;;;5092861;28;20043;-69
2022/01/14 03:18:47;;;;;;;36.55;19.02;;;6.40;99.90;;;;;;5091779;28;20453;-69
2022/01/14 03:21:15;;;;;;;38.10;18.50;;;6.40;99.90;;;;;;5091603;28;20048;-69
2022/01/14 03:23:51;;;;;;;40.50;20.40;;;6.40;99.90;;;;;;5091741;28;20028;-68
2022/01/14 03:26:20;;;;;;;35.70;20.30;;;6.50;99.90;;;;;;5091381;28;20075;-69
2022/01/14 03:28:47;;;;;;;35.60;19.40;;;6.50;99.90;;;;;;5091630;28;20404;-69
2022/01/14 03:31:13;;;;;;;31.67;20.30;;;6.50;99.90;;;;;;5091718;28;20111;-69
2022/01/14 03:33:40;;;;;;;36.03;18.45;;;6.40;99.90;;;;;;5091560;28;20185;-69
2022/01/14 03:36:06;;;;;;;34.65;19.38;;;6.40;99.90;;;;;;5092749;28;20077;-69
2022/01/14 03:38:33;;;;;;;31.95;19.80;;;6.40;99.90;;;;;;5092848;28;20047;-69
2022/01/14 03:40:59;;;;;;;34.63;18.88;;;6.40;99.90;;;;;;5092309;28;20555;-68
2022/01/14 03:43:24;;;;;;;33.45;20.38;;;6.50;99.90;;;;;;5092781;28;20229;-69
2022/01/14 03:45:50;;;;;;;34.50;18.63;;;6.50;99.90;;;;;;5091774;28;20523;-69
2022/01/14 03:48:17;;;;;;;38.75;20.70;;;6.40;99.90;;;;;;5095566;28;20044;-69
2022/01/14 03:50:44;;;;;;;41.63;18.90;;;6.40;99.90;;;;;;5096882;28;20085;-68
2022/01/14 03:53:11;;;;;;;44.97;20.27;;;6.50;99.90;;;;;;5078370;28;20050;-69
2022/01/14 03:55:42;;;;;;;39.28;21.25;;;6.40;99.90;;;;;;5095003;28;20056;-69
2022/01/14 03:58:08;;;;;;;36.53;20.98;;;6.50;99.90;;;;;;5096418;28;20089;-69
2022/01/14 04:00:35;;;;;;;40.95;20.80;;;6.50;99.90;;;;;;5094884;28;20089;-69
2022/01/14 04:03:00;;;;;;;32.22;19.75;;;6.50;99.90;;;;;;5096167;28;20039;-69
2022/01/14 04:05:26;;;;;;;40.47;20.10;;;6.40;99.90;;;;;;5094829;28;20035;-69
2022/01/14 04:07:52;;;;;;;43.88;21.27;;;6.50;99.90;;;;;;5094654;28;20067;-68
2022/01/14 04:10:18;;;;;;;40.85;20.65;;;6.50;99.90;;;;;;5094992;28;20044;-68
2022/01/14 04:12:48;;;;;;;35.45;19.77;;;6.50;99.90;;;;;;5094765;28;20047;-69
2022/01/14 04:18:01;;;;;;;40.67;20.92;;;6.50;99.90;;;;;;5095871;28;20075;-69
2022/01/14 04:20:28;;;;;;;37.80;20.52;;;6.50;99.90;;;;;;5094654;28;20082;-69
2022/01/14 04:22:54;;;;;;;35.55;20.38;;;6.50;99.90;;;;;;5095785;28;20028;-69
2022/01/14 04:25:20;;;;;;;44.42;20.92;;;6.60;99.90;;;;;;5096324;28;20120;-69
2022/01/14 04:27:46;;;;;;;40.80;20.13;;;6.50;99.90;;;;;;5094039;28;20036;-69
2022/01/14 04:30:12;;;;;;;41.90;21.48;;;6.60;99.90;;;;;;5096562;28;20055;-69
2022/01/14 04:32:38;;;;;;;44.00;21.88;;;6.50;99.90;;;;;;5094713;28;20040;-69
2022/01/14 04:35:05;;;;;;;38.53;18.73;;;6.50;99.90;;;;;;5094194;28;20047;-69
2022/01/14 04:37:30;;;;;;;32.17;19.55;;;6.50;99.90;;;;;;5094009;28;20098;-69
2022/01/14 04:39:56;;;;;;;40.90;19.75;;;6.40;99.90;;;;;;5095528;28;20074;-69
2022/01/14 04:42:23;;;;;;;39.22;19.02;;;6.40;99.90;;;;;;5094456;28;20040;-69
2022/01/14 04:44:52;;;;;;;38.38;19.67;;;6.40;99.90;;;;;;5094274;28;20112;-69
2022/01/14 04:47:30;;;;;;;35.65;19.17;;;6.40;99.90;;;;;;5093638;28;20051;-69
2022/01/14 04:49:56;;;;;;;35.88;18.80;;;6.40;99.90;;;;;;5093999;28;20051;-68
2022/01/14 04:52:22;;;;;;;40.22;19.58;;;6.30;99.90;;;;;;5095480;28;20044;-69
2022/01/14 04:54:48;;;;;;;39.15;21.13;;;6.30;99.90;;;;;;5094272;28;20088;-69
2022/01/14 04:57:16;;;;;;;41.25;20.38;;;6.30;99.90;;;;;;5093948;28;20048;-69
2022/01/14 04:59:46;;;;;;;39.22;20.95;;;6.30;99.90;;;;;;5095446;28;20039;-69
2022/01/14 05:02:12;;;;;;;35.65;19.92;;;6.30;99.90;;;;;;5093686;28;20122;-69
2022/01/14 05:04:38;;;;;;;43.38;21.60;;;6.30;99.90;;;;;;5095068;28;20110;-69
2022/01/14 05:07:04;;;;;;;37.22;19.92;;;6.40;99.90;;;;;;5094582;28;20036;-69
2022/01/14 05:09:36;;;;;;;38.95;20.35;;;6.40;99.90;;;;;;5095205;28;20118;-69
2022/01/14 05:12:08;;;;;;;38.97;20.42;;;6.40;99.90;;;;;;5093812;28;20105;-69
2022/01/14 05:14:34;;;;;;;37.92;20.30;;;6.40;99.90;;;;;;5094405;28;20055;-68
2022/01/14 05:17:00;;;;;;;39.35;21.15;;;6.40;99.90;;;;;;5094467;28;20353;-69
2022/01/14 05:19:26;;;;;;;38.75;20.60;;;6.40;99.90;;;;;;5093513;28;20092;-69
2022/01/14 05:21:52;;;;;;;31.27;19.75;;;6.40;99.90;;;;;;5076632;28;20044;-68
2022/01/14 05:24:18;;;;;;;38.35;20.33;;;6.40;99.90;;;;;;5094636;28;20036;-69
2022/01/14 05:26:43;;;;;;;30.13;20.50;;;6.40;99.90;;;;;;5094283;28;20416;-69
2022/01/14 05:29:09;;;;;;;42.33;22.05;;;6.40;99.90;;;;;;5094314;28;20070;-69
2022/01/14 05:31:41;;;;;;;39.80;21.42;;;6.50;99.90;;;;;;5093379;28;20085;-69
2022/01/14 05:34:06;;;;;;;39.65;21.25;;;6.40;99.90;;;;;;5094359;28;20419;-69
2022/01/14 05:36:32;;;;;;;40.10;21.33;;;6.40;99.90;;;;;;5092889;28;20049;-69
2022/01/14 05:38:57;;;;;;;43.47;21.77;;;6.50;99.90;;;;;;5093205;28;20048;-69
2022/01/14 05:41:23;;;;;;;37.85;21.17;;;6.50;99.90;;;;;;5093112;28;20391;-69
2022/01/14 05:43:48;;;;;;;39.38;21.15;;;6.40;99.90;;;;;;5093558;28;20048;-69
2022/01/14 05:46:14;;;;;;;36.50;21.58;;;6.50;99.90;;;;;;5092736;28;20040;-69
2022/01/14 05:48:39;;;;;;;44.03;22.60;;;6.50;99.90;;;;;;5093113;28;20046;-69
2022/01/14 05:51:05;;;;;;;43.80;22.90;;;6.50;99.90;;;;;;5075984;28;20143;-68
2022/01/14 05:53:31;;;;;;;42.90;20.73;;;6.50;99.90;;;;;;5092755;28;20050;-69
2022/01/14 05:55:56;;;;;;;35.70;22.00;;;6.50;99.90;;;;;;5093100;28;20447;-69
2022/01/14 05:58:22;;;;;;;47.25;23.95;;;6.50;99.90;;;;;;5092937;28;20400;-69
2022/01/14 06:00:47;;;;;;;40.90;22.33;;;6.50;99.90;;;;;;5093982;28;20055;-69
2022/01/14 06:03:13;;;;;;;48.25;23.40;;;6.50;99.90;;;;;;5094031;28;20500;-69
2022/01/14 06:05:39;;;;;;;43.65;23.80;;;6.50;99.90;;;;;;5092468;28;20510;-69
2022/01/14 06:08:05;;;;;;;39.20;20.77;;;6.50;99.90;;;;;;5093664;28;20177;-69
2022/01/14 06:10:31;;;;;;;38.88;20.70;;;6.40;99.90;;;;;;5093503;28;20059;-69
2022/01/14 06:12:57;;;;;;;42.80;25.27;;;6.40;99.90;;;;;;5094370;28;20473;-68
2022/01/14 06:15:22;;;;;;;42.50;22.80;;;6.40;99.90;;;;;;5094251;28;20032;-69
2022/01/14 06:17:48;;;;;;;43.53;22.77;;;6.40;99.90;;;;;;5092010;28;20142;-69
2022/01/14 06:20:14;;;;;;;36.80;22.20;;;6.40;99.90;;;;;;5093791;28;20036;-68
2022/01/14 06:22:40;;;;;;;43.05;23.05;;;6.40;99.90;;;;;;5092277;28;20075;-70
2022/01/14 06:25:06;;;;;;;40.28;22.02;;;6.40;99.90;;;;;;5093111;28;20040;-70
2022/01/14 06:27:32;;;;;;;36.83;23.13;;;6.40;99.90;;;;;;5075164;28;20403;-70
2022/01/14 06:29:59;;;;;;;46.65;23.15;;;6.40;99.90;;;;;;5093452;28;20050;-70
2022/01/14 06:32:25;;;;;;;44.95;23.10;;;6.40;99.90;;;;;;5093517;28;20044;-70
2022/01/14 06:34:50;;;;;;;39.15;23.40;;;6.40;99.90;;;;;;5093741;28;20097;-70
2022/01/14 06:37:16;;;;;;;41.10;21.50;;;6.40;99.90;;;;;;5093419;28;20036;-69
2022/01/14 06:39:42;;;;;;;40.10;22.42;;;6.40;99.90;;;;;;5091975;28;20437;-70
2022/01/14 06:42:08;;;;;;;41.30;22.05;;;6.40;99.90;;;;;;5092353;28;20109;-70
2022/01/14 06:44:34;;;;;;;35.42;21.73;;;6.40;99.90;;;;;;5091962;28;20437;-70
2022/01/14 06:46:59;;;;;;;38.75;22.23;;;6.40;99.90;;;;;;5093251;28;20149;-70
2022/01/14 06:49:25;;;;;;;44.33;23.50;;;6.40;99.90;;;;;;5092234;28;20048;-70
2022/01/14 06:51:50;;;;;;;41.15;21.48;;;6.30;99.90;;;;;;5092487;28;20093;-69
2022/01/14 06:54:16;;;;;;;41.45;21.92;;;6.40;99.90;;;;;;5075221;28;20044;-70
2022/01/14 06:56:42;;;;;;;38.40;21.10;;;6.40;99.90;;;;;;5093166;28;20032;-70
2022/01/14 06:59:09;;;;;;;42.60;21.67;;;6.40;99.90;;;;;;5093367;28;20396;-70
2022/01/14 07:01:34;;;;;;;40.15;22.33;;;6.40;99.90;;;;;;5092157;28;20044;-69
2022/01/14 07:04:00;;;;;;;32.58;18.27;;;6.50;99.90;;;;;;5091788;28;20392;-70
2022/01/14 07:06:26;;;;;;;38.97;18.67;;;6.50;99.90;;;;;;5091620;28;20032;-70
2022/01/14 07:08:51;;;;;;;36.30;19.08;;;6.50;99.90;;;;;;5093072;28;20036;-70
2022/01/14 07:11:18;;;;;;;29.90;19.25;;;6.50;99.90;;;;;;5092168;28;20044;-70
2022/01/14 07:13:44;;;;;;;42.65;20.85;;;6.50;99.90;;;;;;5093407;28;20379;-69
2022/01/14 07:16:09;;;;;;;38.10;19.60;;;6.50;99.90;;;;;;5092908;28;20040;-70
2022/01/14 07:18:35;;;;;;;33.40;19.13;;;6.50;99.90;;;;;;5093396;28;20114;-70
2022/01/14 07:21:01;;;;;;;38.50;18.83;;;6.50;99.90;;;;;;5091653;28;20048;-70
2022/01/14 07:23:26;;;;;;;37.42;18.27;;;6.50;99.90;;;;;;5095787;28;20040;-69
2022/01/14 07:25:52;;;;;;;34.90;18.27;;;6.50;99.90;;;;;;5097112;28;20039;-70
2022/01/14 07:28:17;;;;;;;30.13;17.63;;;6.50;99.90;;;;;;5097005;28;20040;-70
2022/01/14 07:30:43;;;;;;;37.03;18.65;;;6.50;99.90;;;;;;5095450;28;20040;-69
2022/01/14 07:33:08;;;;;;;34.83;16.67;;;6.50;99.90;;;;;;5095455;28;20051;-69
2022/01/14 07:35:34;;;;;;;29.23;17.30;;;6.60;99.90;;;;;;5095308;28;20044;-69
2022/01/14 07:38:00;;;;;;;31.98;16.75;;;6.60;99.90;;;;;;5095772;28;20044;-70
2022/01/14 07:40:25;;;;;;;32.97;16.33;;;6.60;99.90;;;;;;5095376;28;20044;-70
2022/01/14 07:42:51;;;;;;;34.70;17.65;;;6.60;99.90;;;;;;5095492;28;20392;-70
2022/01/14 07:45:17;;;;;;;32.45;15.55;;;6.60;99.90;;;;;;5095432;28;20040;-69
2022/01/14 07:47:42;;;;;;;26.65;14.80;;;6.60;99.90;;;;;;5096537;28;20492;-70
2022/01/14 07:50:08;;;;;;;26.65;14.68;;;6.60;99.90;;;;;;5096095;28;20047;-69
2022/01/14 07:52:34;;;;;;;26.67;14.77;;;6.70;99.90;;;;;;5092238;28;20047;-70
2022/01/14 07:54:59;;;;;;;25.45;14.10;;;6.60;99.90;;;;;;5096155;28;20097;-70
2022/01/14 07:57:25;;;;;;;27.65;13.52;;;6.70;99.90;;;;;;5096171;28;20040;-69
2022/01/14 07:59:51;;;;;;;34.72;15.82;;;6.60;99.90;;;;;;5096301;28;20048;-69
2022/01/14 08:02:18;;;;;;;25.73;14.27;;;6.70;99.90;;;;;;5096832;28;20032;-70
2022/01/14 08:04:44;;;;;;;30.45;13.57;;;6.70;99.90;;;;;;5096622;28;20036;-70
2022/01/14 08:07:10;;;;;;;33.25;14.13;;;6.70;99.90;;;;;;5095825;28;20035;-70
2022/01/14 08:09:42;;;;;;;30.67;13.98;;;6.70;99.90;;;;;;5094927;28;20044;-69
2022/01/14 08:12:12;;;;;;;27.83;13.50;;;6.80;99.90;;;;;;5094846;28;20047;-70
2022/01/14 08:14:38;;;;;;;30.67;12.73;;;6.70;99.90;;;;;;5079171;28;20119;-69
2022/01/14 08:17:04;;;;;;;26.23;13.07;;;6.70;99.90;;;;;;5071207;28;20523;-69
2022/01/14 08:19:33;;;;;;;26.45;11.88;;;6.70;99.90;;;;;;5054588;28;20083;-70
2022/01/14 08:22:03;;;;;;;25.55;12.48;;;6.80;99.90;;;;;;5055042;28;20427;-70
2022/01/14 08:24:29;;;;;;;26.35;11.88;;;6.80;99.90;;;;;;5054652;28;20040;-70
2022/01/14 08:26:56;;;;;;;24.38;11.95;;;6.80;99.90;;;;;;5054032;28;20082;-70
2022/01/14 08:29:22;;;;;;;26.77;10.80;;;6.80;99.90;;;;;;5055465;28;20047;-69
2022/01/14 08:31:48;;;;;;;32.47;12.38;;;6.90;99.90;;;;;;5054379;28;20112;-70
2022/01/14 08:34:14;;;;;;;23.20;10.63;;;6.90;99.90;;;;;;5053804;28;20036;-69
2022/01/14 08:36:40;;;;;;;26.50;12.40;;;6.80;99.90;;;;;;5053792;28;20040;-70
2022/01/14 08:39:05;;;;;;;30.40;11.13;;;6.90;99.90;;;;;;5055386;28;20106;-70
2022/01/14 08:41:31;;;;;;;27.42;10.38;;;6.90;99.90;;;;;;5055391;28;20048;-69
2022/01/14 08:43:58;;;;;;;24.15;10.82;;;6.90;99.90;;;;;;5055509;28;20120;-69
2022/01/14 08:46:24;;;;;;;17.70;9.65;;;7.00;99.90;;;;;;5053787;28;20041;-70
2022/01/14 08:48:49;;;;;;;18.13;9.77;;;7.00;99.90;;;;;;5053787;28;20094;-70
2022/01/14 08:51:15;;;;;;;28.77;11.52;;;7.00;99.90;;;;;;5054779;28;20041;-70
2022/01/14 08:53:40;;;;;;;18.33;9.50;;;7.00;99.90;;;;;;5053668;28;20075;-70
2022/01/14 08:56:06;;;;;;;22.25;10.15;;;7.00;99.90;;;;;;5053420;28;20045;-70
2022/01/14 08:58:32;;;;;;;24.50;10.63;;;7.10;99.90;;;;;;5055368;28;20086;-70
2022/01/14 09:00:58;;;;;;;29.58;10.63;;;7.00;99.90;;;;;;5055056;28;20056;-70
2022/01/14 09:03:23;;;;;;;27.10;9.55;;;7.10;99.90;;;;;;5053811;28;20404;-69
2022/01/14 09:05:49;;;;;;;21.38;9.63;;;7.10;99.90;;;;;;5053625;28;20091;-70
2022/01/14 09:08:14;;;;;;;21.83;9.55;;;7.10;99.90;;;;;;5054003;28;20041;-70
2022/01/14 09:10:41;;;;;;;20.83;9.00;;;7.10;99.90;;;;;;5082876;28;20508;-70
2022/01/14 09:13:06;;;;;;;23.83;9.23;;;7.20;99.90;;;;;;5084936;28;20032;-70
2022/01/14 09:15:33;;;;;;;18.90;8.75;;;7.20;99.90;;;;;;5084326;28;20120;-70
2022/01/14 09:17:59;;;;;;;20.58;8.75;;;7.20;99.90;;;;;;5081842;28;20040;-72
2022/01/14 09:20:24;;;;;;;19.00;9.15;;;7.20;99.90;;;;;;5080044;28;20106;-71
2022/01/14 09:22:56;;;;;;;19.65;8.57;;;7.20;99.90;;;;;;5094767;28;20047;-70
2022/01/14 09:25:21;;;;;;;15.85;7.88;;;7.20;99.90;;;;;;5094731;28;20040;-74
2022/01/14 09:27:49;;;;;;;20.10;7.75;;;7.30;99.90;;;;;;5092954;28;20536;-70
2022/01/14 09:30:15;;;;;;;18.73;7.90;;;7.40;99.90;;;;;;5093648;28;20093;-70
2022/01/14 09:32:40;;;;;;;18.48;7.57;;;7.40;99.90;;;;;;5093051;28;20040;-69
2022/01/14 09:35:07;;;;;;;14.43;7.40;;;7.40;99.90;;;;;;5093386;28;20050;-69
2022/01/14 09:37:34;;;;;;;18.65;7.78;;;7.40;99.90;;;;;;5092889;28;20055;-69
2022/01/14 09:39:59;;;;;;;17.00;7.22;;;7.40;99.90;;;;;;5093030;28;20067;-69
2022/01/14 09:42:25;;;;;;;15.57;6.82;;;7.50;99.90;;;;;;5076439;28;20067;-69
2022/01/14 09:44:51;;;;;;;14.48;5.60;;;7.50;99.90;;;;;;5093692;28;20127;-69
2022/01/14 09:47:17;;;;;;;20.27;6.60;;;7.50;99.90;;;;;;5075749;28;20114;-70
2022/01/14 09:49:44;;;;;;;19.67;5.78;;;7.50;99.90;;;;;;5093522;28;20058;-70
2022/01/14 09:52:11;;;;;;;17.85;7.05;;;7.60;99.90;;;;;;5093527;28;20055;-70
2022/01/14 09:54:37;;;;;;;14.27;6.28;;;7.60;99.90;;;;;;5094301;28;20040;-70
2022/01/14 09:57:03;;;;;;;15.90;6.45;;;7.60;99.90;;;;;;5075540;28;20051;-70
2022/01/14 09:59:29;;;;;;;18.80;5.93;;;7.60;99.90;;;;;;5093035;28;20067;-70
2022/01/14 10:01:54;;;;;;;16.67;5.75;;;7.60;99.90;;;;;;5092837;28;20488;-70
2022/01/14 10:04:22;;;;;;;14.57;5.53;;;7.60;99.90;;;;;;5093904;28;20121;-70
2022/01/14 10:06:53;;;;;;;20.10;5.88;;;7.70;99.90;;;;;;5093830;28;20046;-69
2022/01/14 10:09:34;;;;;;;19.02;5.10;;;7.70;99.90;;;;;;5093546;28;20059;-67
2022/01/14 10:12:10;;;;;;;14.63;5.20;;;7.70;99.90;;;;;;5092454;28;20119;-69
2022/01/14 10:14:38;;;;;;;20.25;5.18;;;7.70;99.90;;;;;;5093868;28;20036;-69
2022/01/14 10:17:06;;;;;;;14.68;5.72;;;7.80;99.90;;;;;;5089808;28;20044;-69
2022/01/14 10:19:38;;;;;;;11.07;4.40;;;7.80;99.90;;;;;;5060893;28;20483;-69
2022/01/14 10:22:24;;;;;;;13.90;4.68;;;7.80;99.90;;;;;;5072569;28;20055;-69
2022/01/14 10:25:17;;;;;;;20.70;5.30;;;7.80;99.90;;;;;;5079510;28;20068;-69
2022/01/14 10:27:48;;;;;;;20.40;5.05;;;7.80;99.90;;;;;;5080255;28;20039;-68
2022/01/14 10:30:33;;;;;;;16.10;6.10;;;7.80;99.90;;;;;;5078940;28;20116;-69
2022/01/14 10:33:08;;;;;;;8.77;4.07;;;7.90;99.90;;;;;;5073363;28;20040;-69
2022/01/14 10:35:42;;;;;;;19.20;5.13;;;7.80;99.90;;;;;;5072256;28;20089;-69
2022/01/14 10:38:11;;;;;;;16.35;5.65;;;7.90;99.90;;;;;;5073804;28;20048;-69
2022/01/14 10:40:42;;;;;;;9.45;4.45;;;7.90;99.90;;;;;;5055776;28;20370;-69
2022/01/14 10:43:12;;;;;;;17.65;5.10;;;7.90;99.90;;;;;;5072819;28;20085;-69
2022/01/14 10:45:38;;;;;;;16.65;4.68;;;7.90;99.90;;;;;;5071901;28;20484;-68
2022/01/14 10:48:07;;;;;;;17.40;5.38;;;7.90;99.90;;;;;;5072113;28;20051;-69
2022/01/14 10:50:42;;;;;;;12.88;4.63;;;7.90;99.90;;;;;;5072220;28;20046;-69
2022/01/14 10:53:22;;;;;;;15.63;4.82;;;7.90;99.90;;;;;;5071914;28;20036;-69
2022/01/14 10:55:49;;;;;;;15.50;5.00;;;8.00;99.90;;;;;;5072342;28;20044;-69
2022/01/14 10:58:17;;;;;;;13.15;4.30;;;8.00;99.90;;;;;;5076121;28;20049;-69
2022/01/14 11:00:49;;;;;;;17.27;4.78;;;8.00;99.90;;;;;;5075895;28;20106;-69
2022/01/14 11:03:16;;;;;;;15.65;4.85;;;8.00;99.90;;;;;;5076274;28;20035;-69
2022/01/14 11:05:42;;;;;;;21.50;4.88;;;8.00;99.90;;;;;;5077040;28;20045;-69
2022/01/14 11:08:08;;;;;;;14.35;4.43;;;8.00;99.90;;;;;;5077223;28;20392;-68
2022/01/14 11:10:38;;;;;;;16.42;3.90;;;8.00;99.90;;;;;;5076039;28;20040;-69
2022/01/14 11:13:07;;;;;;;9.60;4.10;;;8.00;99.90;;;;;;5077830;28;20354;-68
2022/01/14 11:15:34;;;;;;;13.63;4.22;;;7.90;99.90;;;;;;5061274;28;20041;-68
2022/01/14 11:18:04;;;;;;;16.90;5.28;;;8.00;99.90;;;;;;5057309;28;20081;-68
2022/01/14 11:20:34;;;;;;;17.88;4.68;;;8.00;99.90;;;;;;5084247;28;20044;-68
2022/01/14 11:23:15;;;;;;;16.30;4.15;;;8.00;99.90;;;;;;5075836;28;20044;-70
2022/01/14 11:25:45;;;;;;;13.05;4.80;;;8.00;99.90;;;;;;5076619;28;20041;-69
2022/01/14 11:28:15;;;;;;;11.05;4.30;;;8.00;99.90;;;;;;5075606;28;20068;-69
2022/01/14 11:30:40;;;;;;;17.38;4.90;;;8.10;99.90;;;;;;5076019;28;20040;-69
2022/01/14 11:33:08;;;;;;;19.23;4.72;;;8.10;99.90;;;;;;5075315;28;20481;-69
2022/01/14 11:35:37;;;;;;;13.60;4.65;;;8.10;99.90;;;;;;5076776;28;20130;-68
2022/01/14 11:38:16;;;;;;;15.38;4.68;;;8.10;99.90;;;;;;5076946;28;20492;-69
2022/01/14 11:40:49;;;;;;;16.80;5.03;;;8.10;99.90;;;;;;5075413;28;20477;-68
2022/01/14 11:43:44;;;;;;;25.08;5.90;;;8.10;99.90;;;;;;5076475;28;20107;-69
2022/01/14 11:46:34;;;;;;;16.20;5.00;;;8.10;99.90;;;;;;5075966;28;20119;-69
2022/01/14 11:49:00;;;;;;;17.33;4.85;;;8.10;99.90;;;;;;5074825;28;20089;-68
2022/01/14 11:51:26;;;;;;;16.10;4.68;;;8.10;99.90;;;;;;5075415;28;20170;-68
2022/01/14 11:53:53;;;;;;;16.75;5.47;;;8.10;99.90;;;;;;5076242;28;20089;-68
2022/01/14 11:56:33;;;;;;;22.13;5.13;;;8.10;99.90;;;;;;5075839;28;20170;-68
2022/01/14 11:59:17;;;;;;;14.25;4.97;;;8.20;99.90;;;;;;5075274;28;20393;-68
2022/01/14 12:01:46;;;;;;;13.25;5.05;;;8.10;99.90;;;;;;5075061;28;20127;-68
2022/01/14 12:04:12;;;;;;;23.75;5.88;;;8.20;99.90;;;;;;5074741;28;20047;-68
2022/01/14 12:06:50;;;;;;;15.07;4.88;;;8.10;99.90;;;;;;5074470;28;20037;-69
2022/01/14 12:09:23;;;;;;;13.85;4.45;;;8.20;99.90;;;;;;5075426;28;20129;-69
2022/01/14 12:12:23;;;;;;;15.80;5.15;;;8.10;99.90;;;;;;5058205;28;20049;-68
2022/01/14 12:14:57;;;;;;;16.10;4.65;;;8.10;99.90;;;;;;5074687;28;20131;-68
2022/01/14 12:17:42;;;;;;;15.50;4.72;;;8.10;99.90;;;;;;5075436;28;20049;-70
2022/01/14 12:20:16;;;;;;;16.73;5.05;;;8.10;99.90;;;;;;5058808;28;20052;-69
2022/01/14 12:23:02;;;;;;;17.27;6.10;;;8.10;99.90;;;;;;5076221;28;20044;-68
2022/01/14 12:25:39;;;;;;;15.13;5.88;;;8.00;99.90;;;;;;5075726;28;20040;-68
2022/01/14 12:28:17;;;;;;;18.23;5.43;;;8.10;99.90;;;;;;5075390;28;20041;-69
2022/01/14 12:31:01;;;;;;;15.57;5.07;;;8.10;99.90;;;;;;5063232;28;20068;-68
2022/01/14 12:33:45;;;;;;;14.93;5.20;;;8.10;99.90;;;;;;5078399;28;20082;-68
2022/01/14 12:36:16;;;;;;;14.05;4.85;;;8.00;99.90;;;;;;5054360;28;20048;-69
2022/01/14 12:38:43;;;;;;;18.13;6.25;;;8.10;99.90;;;;;;5055408;28;20048;-69
2022/01/14 12:41:23;;;;;;;22.10;5.78;;;8.10;99.90;;;;;;5055065;28;20473;-69
2022/01/14 12:43:56;;;;;;;14.80;6.25;;;8.10;99.90;;;;;;5055401;28;20076;-68
2022/01/14 12:49:10;;;;;;;15.68;5.22;;;8.10;99.90;;;;;;5055898;28;20049;-69
2022/01/14 12:51:37;;;;;;;19.92;5.72;;;8.10;99.90;;;;;;5054124;28;20037;-69
2022/01/14 12:54:07;;;;;;;18.23;6.40;;;8.10;99.90;;;;;;5055437;28;20029;-69
2022/01/14 12:56:36;;;;;;;18.35;5.93;;;8.00;99.90;;;;;;5054810;28;20112;-69
2022/01/14 12:59:05;;;;;;;23.17;7.30;;;8.10;99.90;;;;;;5055651;28;20037;-69
2022/01/14 13:01:37;;;;;;;14.95;5.63;;;8.10;99.90;;;;;;5053751;28;20049;-69
2022/01/14 13:04:08;;;;;;;13.05;5.70;;;8.00;99.90;;;;;;5053634;28;20079;-68
2022/01/14 13:06:47;;;;;;;17.08;5.53;;;8.00;99.90;;;;;;5054602;28;20029;-69
2022/01/14 13:09:18;;;;;;;22.23;5.65;;;8.00;99.90;;;;;;5053388;28;20043;-68
2022/01/14 13:11:45;;;;;;;21.92;7.20;;;8.10;99.90;;;;;;5053696;28;20563;-69
2022/01/14 13:14:15;;;;;;;23.33;7.07;;;8.00;99.90;;;;;;5064199;28;20036;-69
2022/01/14 13:16:50;;;;;;;21.15;6.90;;;8.00;99.90;;;;;;5083944;28;20085;-69